TimeMDT,TemperatureF,Dew PointF,Humidity,Sea Level PressureIn,VisibilityMPH,Wind Direction,Wind SpeedMPH,Gust SpeedMPH,PrecipitationIn,Events,Conditions,WindDirDegrees,DateUTC
12:53 AM,28.9,19.9,69,30.19,10.0,East,5.8,-,N/A,,Clear,80,2012-10-18 06:53:00
1:53 AM,28.9,19.9,69,30.22,10.0,NNE,4.6,-,N/A,,Clear,30,2012-10-18 07:53:00
2:53 AM,27.0,18.0,69,30.22,10.0,Calm,Calm,-,N/A,,Clear,0,2012-10-18 08:53:00
3:53 AM,24.1,18.0,77,30.22,10.0,NE,6.9,-,N/A,,Clear,50,2012-10-18 09:53:00
4:53 AM,27.0,17.1,66,30.22,10.0,East,4.6,-,N/A,,Clear,90,2012-10-18 10:53:00
5:53 AM,23.0,17.1,78,30.26,10.0,ENE,3.5,-,N/A,,Clear,60,2012-10-18 11:53:00
6:53 AM,25.0,17.1,72,30.29,10.0,Calm,Calm,-,N/A,,Clear,0,2012-10-18 12:53:00
7:53 AM,26.1,17.1,69,30.32,10.0,NE,3.5,-,N/A,,Clear,50,2012-10-18 13:53:00
8:53 AM,30.9,18.0,59,30.33,10.0,SSE,6.9,-,N/A,,Clear,150,2012-10-18 14:53:00
9:53 AM,37.0,17.1,44,30.32,10.0,Calm,Calm,-,N/A,,Clear,0,2012-10-18 15:53:00
10:53 AM,43.0,18.0,37,30.29,10.0,Calm,Calm,-,N/A,,Clear,0,2012-10-18 16:53:00
11:53 AM,48.9,10.0,21,30.26,10.0,Calm,Calm,-,N/A,,Clear,0,2012-10-18 17:53:00
1:53 PM,55.0,12.0,18,30.19,10.0,WSW,12.7,17.3,N/A,,Clear,240,2012-10-18 19:53:00
2:53 PM,55.9,14.0,19,30.17,10.0,SSW,11.5,-,N/A,,Clear,200,2012-10-18 20:53:00
3:53 PM,57.0,12.9,18,30.19,10.0,West,12.7,17.3,N/A,,Clear,260,2012-10-18 21:53:00
4:53 PM,57.0,14.0,18,30.17,10.0,WSW,10.4,-,N/A,,Clear,250,2012-10-18 22:53:00
5:53 PM,55.9,15.1,20,30.19,8.0,Calm,Calm,-,N/A,,Clear,0,2012-10-18 23:53:00
6:53 PM,48.0,21.9,36,30.22,10.0,Calm,Calm,-,N/A,,Clear,0,2012-10-19 00:53:00
7:53 PM,41.0,24.1,51,30.26,10.0,NNW,3.5,-,N/A,,Clear,340,2012-10-19 01:53:00
8:53 PM,37.0,23.0,57,30.27,10.0,ENE,3.5,-,N/A,,Clear,60,2012-10-19 02:53:00
9:53 PM,35.1,24.1,64,30.26,10.0,NE,5.8,-,N/A,,Clear,40,2012-10-19 03:53:00
10:53 PM,37.9,19.9,48,30.21,10.0,ESE,5.8,-,N/A,,Clear,110,2012-10-19 04:53:00
11:53 PM,34.0,21.0,59,30.20,10.0,ENE,5.8,-,N/A,,Clear,60,2012-10-19 05:53:00